Latest Weather Observations for Roseworthy

IDS60901

Issued at 11:15 pm CST Tuesday 30 September 2014 (issued every 10 minutes, with the page automatically refreshed every 10 minutes)

About weather observations | Map of Adelaide area stations | Latest observations for Adelaide area | Other Formats
Station Details ID: 023122 Name: ROSEWORTHY AWS Lat: -34.51 Lon: 138.68 Height: 65.0 m
Data from the previous 72 hours. | See also: Recent months at Roseworthy
Date/Time
CST
Tmp

°C
App
Tmp
°C
Dew
Point
°C
Rel
Hum
%
Delta-T

°C
Wind Press
QNH
hPa
Press
MSL
hPa
Rain
since
9 am
mm
Dir
 
Spd
km/h
Gust
km/h
Spd
kts
Gust
kts
30/11:00pm 9.9 6.0 3.4 64 2.8 SW 13 19 7 10 1022.3 - 0.0
30/10:30pm 11.2 7.0 4.0 61 3.2 SW 15 22 8 12 1022.2 - 0.0
30/10:00pm 12.1 8.8 8.2 77 1.9 WSW 15 20 8 11 1021.9 - 0.0
30/09:30pm 10.9 7.4 7.2 78 1.8 WSW 15 20 8 11 1021.6 - 0.0
30/09:00pm 11.6 7.7 7.1 74 2.2 W 17 24 9 13 1021.5 1021.6 0.0
30/08:30pm 13.0 7.3 6.6 65 3.1 WSW 26 33 14 18 1021.1 - 0.0
30/08:00pm 13.8 8.6 7.3 65 3.2 WSW 24 35 13 19 1020.6 - 0.0
30/07:30pm 13.6 8.5 7.6 67 3.0 WSW 24 35 13 19 1020.2 - 0.0
30/07:00pm 14.3 8.0 7.6 64 3.3 WSW 30 43 16 23 1019.4 - 0.0
30/06:30pm 13.7 9.3 7.5 66 3.1 SW 20 28 11 15 1018.7 - 0.0
30/06:00pm 14.6 8.9 6.9 60 3.8 SW 26 35 14 19 1018.3 1018.4 0.0
30/05:30pm 15.6 9.4 6.3 54 4.5 SW 28 39 15 21 1017.9 - 0.0
30/05:00pm 16.5 10.8 6.6 52 4.9 WSW 26 39 14 21 1017.5 - 0.0
30/04:30pm 16.7 10.3 8.4 58 4.2 SW 32 41 17 22 1017.1 - 0.0
30/04:00pm 16.1 9.4 8.3 60 4.0 WSW 33 48 18 26 1017.0 - 0.0
30/03:57pm 16.1 10.1 8.6 61 3.8 WSW 30 48 16 26 1016.9 - 0.0
30/03:30pm 17.2 11.4 9.6 61 4.0 SW 30 43 16 23 1016.3 - 0.0
30/03:00pm 18.0 11.5 10.4 61 4.1 SW 35 46 19 25 1016.0 1016.1 0.0
30/02:46pm 19.1 12.1 9.9 55 4.9 WSW 37 56 20 30 1015.8 - 0.0
30/02:30pm 19.9 11.5 9.5 51 5.5 W 44 57 24 31 1015.7 - 0.0
30/02:08pm 20.3 12.3 8.9 48 6.0 W 41 61 22 33 1015.6 - 0.0
30/02:00pm 20.6 12.3 9.5 49 5.9 W 43 59 23 32 1015.6 - 0.0
30/01:30pm 19.8 11.4 8.8 49 5.8 W 43 61 23 33 1015.4 - 0.0
30/01:29pm 19.9 11.8 8.6 48 5.9 W 41 59 22 32 1015.4 - 0.0
30/01:00pm 21.6 14.1 8.1 42 7.1 W 37 52 20 28 1015.4 - 0.0
30/12:30pm 20.6 11.9 7.9 44 6.6 W 43 61 23 33 1015.4 - 0.0
30/12:07pm 20.6 11.8 7.2 42 6.9 W 43 63 23 34 1015.2 - 0.0
30/12:00pm 21.8 13.6 8.3 42 7.1 W 41 57 22 31 1015.1 1015.2 0.0
30/11:30am 21.2 13.1 8.8 45 6.6 W 41 54 22 29 1015.0 - 0.0
30/11:00am 21.2 12.4 7.1 40 7.2 W 43 59 23 32 1014.8 - 0.0
30/10:38am 20.9 12.6 7.9 43 6.8 W 41 59 22 32 1014.8 - 0.0
30/10:30am 20.9 12.9 8.9 46 6.4 W 41 56 22 30 1014.8 - 0.0
30/10:13am 20.9 13.5 8.2 44 6.6 W 37 56 20 30 1014.8 - 0.0
30/10:00am 21.0 12.9 8.6 45 6.5 W 41 56 22 30 1014.7 - 0.0
30/09:30am 20.7 13.1 7.7 43 6.7 W 37 50 20 27 1014.4 - 0.0
30/09:18am 20.7 12.2 7.0 41 7.0 W 41 59 22 32 1014.5 - 0.0
30/09:00am 21.0 13.2 6.5 39 7.3 WNW 37 50 20 27 1014.3 1014.4 0.0
30/08:30am 19.6 12.8 6.7 43 6.5 WNW 32 43 17 23 1013.7 - 0.0
30/08:00am 18.3 11.5 6.8 47 5.8 NW 32 43 17 23 1013.2 - 0.0
30/07:48am 17.9 11.5 7.0 49 5.5 NW 30 48 16 26 1013.1 - 0.0
30/07:30am 16.1 11.1 8.1 59 4.1 NNW 24 39 13 21 1013.1 - 0.0
30/07:00am 11.6 8.4 8.5 81 1.5 N 15 20 8 11 1013.3 - 0.0
30/06:30am 10.0 5.8 7.4 84 1.2 N 19 22 10 12 1012.8 - 0.0
30/06:00am 9.1 4.7 6.7 85 1.1 N 19 22 10 12 1012.3 1012.3 0.0
30/05:30am 8.9 4.9 6.5 85 1.1 N 17 20 9 11 1012.0 - 0.0
30/05:00am 8.5 4.8 6.5 87 0.9 N 15 19 8 10 1011.8 - 0.0
30/04:30am 8.5 4.9 6.6 88 0.9 N 15 17 8 9 1011.4 - 0.0
30/04:00am 8.5 4.6 7.0 90 0.7 N 17 17 9 9 1011.3 - 0.0
30/03:30am 7.7 4.0 6.2 90 0.7 NNE 15 17 8 9 1011.4 - 0.0
30/03:00am 7.7 4.0 6.3 91 0.6 NNE 15 17 8 9 1011.8 1011.8 0.0
30/02:30am 8.1 4.6 7.0 93 0.5 NNE 15 17 8 9 1012.1 - 0.0
30/02:00am 7.6 4.3 6.4 92 0.5 NNE 13 17 7 9 1012.6 - 0.0
30/01:30am 7.4 3.7 6.2 92 0.5 NE 15 17 8 9 1012.9 - 0.0
30/01:00am 7.0 3.2 5.8 92 0.5 NNE 15 15 8 8 1013.4 - 0.0
30/12:30am 7.1 3.7 5.9 92 0.5 NNE 13 15 7 8 1013.9 - 0.0
30/12:00am 6.8 3.3 5.4 91 0.6 NNE 13 13 7 7 1014.0 1014.0 0.0
 
Date/Time
CST
Tmp

°C
App
Tmp
°C
Dew
Point
°C
Rel
Hum
%
Delta-T

°C
Wind Press
QNH
hPa
Press
MSL
hPa
Rain
since
9 am
mm
Dir
 
Spd
km/h
Gust
km/h
Spd
kts
Gust
kts
29/11:30pm 6.6 3.4 5.1 90 0.7 N 11 13 6 7 1014.4 - 0.0
29/11:00pm 6.9 4.4 4.9 87 0.9 N 7 11 4 6 1014.5 - 0.0
29/10:30pm 8.2 5.3 6.5 89 0.8 N 11 13 6 7 1014.8 - 0.0
29/10:00pm 8.3 5.4 6.4 88 0.9 N 11 13 6 7 1015.0 - 0.0
29/09:30pm 8.9 5.4 7.0 88 0.9 N 15 15 8 8 1014.9 - 0.0
29/09:00pm 9.0 6.1 6.6 85 1.1 NW 11 13 6 7 1014.8 1014.9 0.0
29/08:30pm 10.1 7.4 7.2 82 1.4 W 11 13 6 7 1014.6 - 0.0
29/08:00pm 10.8 7.9 6.7 76 1.9 WSW 11 13 6 7 1014.3 - 0.0
29/07:30pm 11.4 9.0 7.1 75 2.1 WSW 9 11 5 6 1013.8 - 0.0
29/07:00pm 13.0 11.0 7.2 68 2.8 SW 7 9 4 5 1013.4 - 0.0
29/06:30pm 15.3 13.5 8.1 62 3.6 SW 7 9 4 5 1013.0 - 0.0
29/06:00pm 17.7 16.1 8.6 55 4.7 SW 7 9 4 5 1012.8 1012.8 0.0
29/05:30pm 19.8 16.8 7.5 45 6.3 WSW 13 17 7 9 1012.8 - 0.0
29/05:00pm 21.1 16.7 6.6 39 7.4 WSW 19 26 10 14 1012.6 - 0.0
29/04:30pm 21.9 17.9 6.6 37 7.8 W 17 22 9 12 1012.4 - 0.0
29/04:00pm 22.5 17.0 5.9 34 8.4 W 24 35 13 19 1012.3 - 0.0
29/03:30pm 23.3 17.5 6.1 33 8.8 WNW 26 39 14 21 1012.4 - 0.0
29/03:00pm 23.6 18.2 6.4 33 8.8 WNW 24 35 13 19 1012.4 1012.4 0.0
29/02:30pm 23.7 18.7 6.5 33 8.9 NW 22 32 12 17 1012.6 - 0.0
29/02:00pm 23.6 18.9 6.0 32 9.0 WNW 20 32 11 17 1012.9 - 0.0
29/01:30pm 23.6 18.9 6.0 32 9.0 NW 20 30 11 16 1013.3 - 0.0
29/01:00pm 21.9 17.4 7.0 38 7.7 WNW 20 32 11 17 1013.7 - 0.0
29/12:30pm 22.0 17.1 6.7 37 7.8 NW 22 33 12 18 1014.2 - 0.0
29/12:00pm 21.0 17.4 8.3 44 6.7 NNW 17 30 9 16 1014.6 1014.7 0.0
29/11:30am 20.7 16.1 8.0 44 6.6 WNW 22 35 12 19 1015.1 - 0.0
29/11:00am 20.4 16.4 8.1 45 6.4 NW 19 28 10 15 1015.4 - 0.0
29/10:30am 21.4 17.9 10.3 49 6.1 NW 19 24 10 13 1015.6 - 0.0
29/10:00am 18.5 14.9 9.8 57 4.6 WNW 19 24 10 13 1016.1 - 0.0
29/09:30am 18.9 15.9 10.7 59 4.4 NW 17 26 9 14 1016.3 - 0.0
29/09:00am 17.4 14.1 11.7 69 3.1 NW 20 30 11 16 1016.3 1016.4 0.0
29/08:30am 16.2 13.0 12.0 76 2.3 NW 20 28 11 15 1016.0 - 0.0
29/08:00am 14.4 11.7 11.6 83 1.5 NNW 17 24 9 13 1015.9 - 0.0
29/07:30am 12.9 10.5 11.3 90 0.8 NNW 15 20 8 11 1015.7 - 0.0
29/07:00am 11.1 8.3 9.9 92 0.6 N 15 17 8 9 1015.5 - 0.0
29/06:30am 10.5 7.5 9.4 93 0.6 N 15 20 8 11 1015.3 - 0.0
29/06:00am 9.5 6.3 8.6 94 0.4 N 15 19 8 10 1015.1 1015.2 0.0
29/05:30am 9.2 6.3 8.3 94 0.4 N 13 15 7 8 1014.9 - 0.0
29/05:00am 8.4 5.3 7.3 93 0.5 N 13 15 7 8 1014.6 - 0.0
29/04:30am 8.4 5.3 7.3 93 0.5 N 13 15 7 8 1014.3 - 0.0
29/04:00am 8.3 5.2 7.2 93 0.5 N 13 15 7 8 1014.1 - 0.0
29/03:30am 8.6 5.5 7.4 92 0.6 N 13 15 7 8 1013.9 - 0.0
29/03:00am 9.0 5.6 7.8 92 0.6 N 15 17 8 9 1013.9 1013.9 0.0
29/02:30am 8.9 5.9 7.7 92 0.6 N 13 15 7 8 1014.1 - 0.0
29/02:00am 8.9 5.9 7.5 91 0.7 NNW 13 17 7 9 1014.1 - 0.0
29/01:30am 9.8 6.5 8.1 89 0.8 NW 15 19 8 10 1014.2 - 0.0
29/01:00am 10.4 7.6 8.7 89 0.8 NW 13 17 7 9 1014.5 - 0.0
29/12:30am 10.5 7.0 8.8 89 0.8 WNW 17 22 9 12 1014.5 - 0.0
29/12:00am 9.9 6.3 8.3 90 0.8 NW 17 19 9 10 1014.6 1014.7 0.0
 
Date/Time
CST
Tmp

°C
App
Tmp
°C
Dew
Point
°C
Rel
Hum
%
Delta-T

°C
Wind Press
QNH
hPa
Press
MSL
hPa
Rain
since
9 am
mm
Dir
 
Spd
km/h
Gust
km/h
Spd
kts
Gust
kts
28/11:30pm 9.5 6.2 8.1 91 0.7 NW 15 19 8 10 1014.9 - 0.0
28/11:00pm 9.2 6.2 7.6 90 0.8 NW 13 17 7 9 1015.1 - 0.0
28/10:30pm 8.8 5.3 7.3 90 0.7 NW 15 17 8 9 1015.1 - 0.0
28/10:00pm 9.3 7.0 7.4 88 0.9 N 9 13 5 7 1015.0 - 0.0
28/09:30pm 10.5 7.0 8.6 88 0.9 WNW 17 17 9 9 1014.8 - 0.0
28/09:00pm 11.7 9.5 9.4 86 1.2 WSW 11 15 6 8 1015.1 1015.2 0.0
28/08:30pm 12.0 9.9 9.6 85 1.2 WSW 11 13 6 7 1014.6 - 0.0
28/08:00pm 11.8 9.8 8.8 82 1.5 WSW 9 9 5 5 1013.9 - 0.0
28/07:30pm 13.1 11.1 10.1 82 1.6 SW 11 15 6 8 1013.1 - 0.0
28/07:00pm 14.1 12.9 10.3 78 2.0 SW 7 11 4 6 1012.1 - 0.0
28/06:30pm 15.2 12.9 10.6 74 2.4 SSW 13 20 7 11 1011.6 - 0.0
28/06:00pm 16.5 13.0 10.8 69 3.1 SSW 20 28 11 15 1010.7 1010.7 0.0
28/05:30pm 17.8 12.7 9.2 57 4.5 SSW 26 35 14 19 1009.9 - 0.0
28/05:00pm 18.4 13.5 10.0 58 4.5 SSW 26 39 14 21 1009.3 - 0.0
28/04:30pm 19.7 13.5 9.9 53 5.3 SSW 33 43 18 23 1008.4 - 0.0
28/04:00pm 21.7 14.6 9.6 46 6.5 SSW 37 50 20 27 1007.5 - 0.0
28/03:56pm 23.0 15.5 9.4 42 7.4 SSW 39 52 21 28 1007.2 - 0.0
28/03:48pm 26.4 18.4 7.4 30 10.1 WSW 39 52 21 28 1006.7 - 0.0
28/03:30pm 29.4 19.7 2.6 18 13.4 W 43 56 23 30 1006.1 - 0.0
28/03:00pm 30.3 21.0 0.8 15 14.4 WNW 39 56 21 30 1006.1 1006.2 0.0
28/02:55pm 30.3 21.3 -0.1 14 14.6 WNW 37 56 20 30 1006.1 - 0.0
28/02:30pm 30.6 21.4 1.0 15 14.5 W 39 69 21 37 1006.2 - 0.0
28/02:28pm 30.9 22.5 1.3 15 14.6 W 35 69 19 37 1006.2 - 0.0
28/02:00pm 31.6 20.3 0.9 14 15.1 NW 50 70 27 38 1006.5 - 0.0
28/01:30pm 30.9 17.6 -0.7 13 15.0 NW 59 80 32 43 1006.8 - 0.0
28/01:00pm 30.9 19.1 0.3 14 14.8 NNW 52 80 28 43 1007.0 - 0.0
28/12:30pm 29.4 18.2 1.8 17 13.6 NNW 50 69 27 37 1007.3 - 0.0
28/12:00pm 31.0 20.1 1.4 15 14.6 NNW 48 67 26 36 1007.4 1007.5 0.0
28/11:30am 30.3 17.8 0.8 15 14.3 NNW 56 74 30 40 1007.5 - 0.0
28/11:00am 30.0 17.3 0.6 15 14.2 NNW 57 82 31 44 1007.4 - 0.0
28/10:30am 29.7 16.9 0.3 15 14.1 NNW 57 83 31 45 1007.9 - 0.0
28/10:00am 28.0 17.6 2.2 19 12.7 NNW 46 67 25 36 1008.5 - 0.0
28/09:30am 27.3 17.0 2.4 20 12.2 NNW 46 65 25 35 1008.6 - 0.0
28/09:00am 26.7 16.4 2.6 21 11.8 NNW 46 65 25 35 1008.9 1008.9 0.0
28/08:32am 26.1 14.9 2.1 21 11.6 N 50 69 27 37 1007.6 - 0.0
28/08:30am 26.0 14.4 2.0 21 11.6 N 52 69 28 37 1007.4 - 0.0
28/08:00am 24.6 14.9 2.7 24 10.6 N 43 63 23 34 1007.3 - 0.0
28/07:44am 23.3 16.0 2.7 26 9.9 N 30 54 16 29 1007.6 - 0.0
28/07:30am 21.8 14.8 3.9 31 8.7 N 30 44 16 24 1007.6 - 0.0
28/07:00am 20.5 13.8 3.7 33 8.0 N 28 37 15 20 1007.9 - 0.0
28/06:44am 20.1 13.0 3.3 33 8.0 N 30 48 16 26 1008.1 - 0.0
28/06:30am 19.7 12.2 3.4 34 7.7 N 32 43 17 23 1008.1 - 0.0
28/06:00am 19.3 11.9 3.9 36 7.4 N 32 44 17 24 1008.3 1008.3 0.0
28/05:30am 19.1 11.5 4.1 37 7.2 N 33 46 18 25 1008.3 - 0.0
28/05:00am 19.2 11.7 4.6 38 7.0 N 33 43 18 23 1008.7 - 0.0
28/04:30am 18.9 11.7 5.0 40 6.7 N 32 44 17 24 1008.6 - 0.0
28/04:00am 18.7 11.5 5.2 41 6.6 N 32 41 17 22 1009.0 - 0.0
28/03:30am 18.4 11.8 5.9 44 6.2 N 30 39 16 21 1009.8 - 0.0
28/03:00am 18.4 11.8 5.9 44 6.2 N 30 41 16 22 1010.5 1010.5 0.0
28/02:30am 18.3 12.5 6.2 45 6.0 N 26 35 14 19 1011.1 - 0.0
28/02:00am 18.7 12.1 5.9 43 6.3 N 30 43 16 23 1011.5 - 0.0
28/01:30am 19.2 12.4 5.3 40 6.8 N 30 43 16 23 1011.7 - 0.0
28/01:00am 19.5 12.3 4.8 38 7.1 N 32 43 17 23 1012.0 - 0.0
28/12:30am 19.6 12.8 4.9 38 7.2 N 30 41 16 22 1012.2 - 0.0
28/12:00am 19.6 13.1 4.9 38 7.2 N 28 35 15 19 1012.5 1012.5 0.0
 
Date/Time
CST
Tmp

°C
App
Tmp
°C
Dew
Point
°C
Rel
Hum
%
Delta-T

°C
Wind Press
QNH
hPa
Press
MSL
hPa
Rain
since
9 am
mm
Dir
 
Spd
km/h
Gust
km/h
Spd
kts
Gust
kts
27/11:30pm 19.1 13.0 4.8 39 6.9 N 26 35 14 19 1012.8 - 0.0

Latest Capital City Observations: Canberra | Sydney | Melbourne | Brisbane | Adelaide | Perth | Hobart | Darwin

Other Formats:

Comma delimited format used in spreadsheet applications
http://www.bom.gov.au/fwo/IDS60901/IDS60901.95671.axf

JavaScript Object Notation format (JSON) in row-major order
http://www.bom.gov.au/fwo/IDS60901/IDS60901.95671.json